Time;durP1;ratioP1;P1;durP2;ratioP2;P2;SDS_P1;SDS_P2;PMS_P1;PMS_P2;Temp;Humidity;BMP_temperature;BMP_pressure;BME280_temperature;BME280_humidity;BME280_pressure;Samples;Min_cycle;Max_cycle;Signal;HPM_P1;HPM_P2
2022/05/08 00:00:54;;;;;;;4.90;2.37;;;;;;;11.60;53.71;95290.97;5052644;28;20570;-80
2022/05/08 00:03:19;;;;;;;4.43;2.53;;;;;;;11.93;53.71;95345.53;5052686;28;20152;-80
2022/05/08 00:05:44;;;;;;;4.77;2.30;;;;;;;12.06;53.29;95350.75;5052655;28;20172;-80
2022/05/08 00:08:10;;;;;;;4.67;2.20;;;;;;;11.83;53.41;95321.38;5052911;28;20166;-80
2022/05/08 00:10:35;;;;;;;5.30;2.47;;;;;;;11.87;53.57;95335.78;5052870;28;20170;-80
2022/05/08 00:13:01;;;;;;;6.67;2.40;;;;;;;11.68;53.81;95318.94;5052810;28;20156;-80
2022/05/08 00:15:26;;;;;;;5.37;2.27;;;;;;;11.33;53.67;95263.84;5052439;28;20178;-81
2022/05/08 00:17:52;;;;;;;2.77;2.30;;;;;;;11.08;53.71;95225.16;5052040;28;20695;-80
2022/05/08 00:20:17;;;;;;;7.13;2.20;;;;;;;11.81;53.82;95344.53;5051321;28;20167;-80
2022/05/08 00:22:44;;;;;;;6.30;2.10;;;;;;;11.37;53.65;95280.06;5051503;28;20660;-80
2022/05/08 00:25:10;;;;;;;4.60;2.10;;;;;;;11.58;54.17;95315.94;5051727;28;20175;-79
2022/05/08 00:27:35;;;;;;;5.70;2.33;;;;;;;11.80;53.53;95350.81;5052561;28;20167;-79
2022/05/08 00:30:01;;;;;;;4.17;2.27;;;;;;;11.70;53.70;95351.19;5052296;28;20593;-79
2022/05/08 00:32:27;;;;;;;4.10;2.00;;;;;;;11.54;54.29;95341.06;5052060;28;20193;-80
2022/05/08 00:34:53;;;;;;;6.90;2.10;;;;;;;11.37;54.48;95327.50;5055544;28;20179;-79
2022/05/08 00:37:18;;;;;;;4.00;2.57;;;;;;;11.26;54.41;95321.00;5051588;28;20680;-79
2022/05/08 00:39:44;;;;;;;5.90;2.40;;;;;;;11.36;54.98;95349.59;5051650;28;20229;-81
2022/05/08 00:42:10;;;;;;;6.90;2.10;;;;;;;10.98;55.11;95302.75;5051934;28;20179;-80
2022/05/08 00:44:35;;;;;;;4.80;2.37;;;;;;;10.90;55.43;95294.25;5052333;28;20163;-80
2022/05/08 00:47:01;;;;;;;5.37;2.40;;;;;;;10.67;55.70;95283.28;5051608;28;20219;-80
2022/05/08 00:49:26;;;;;;;2.80;2.50;;;;;;;11.09;56.12;95350.59;5051689;28;20160;-80
2022/05/08 00:51:53;;;;;;;3.83;2.10;;;;;;;11.13;55.73;95341.28;5051365;28;20278;-80
2022/05/08 00:54:18;;;;;;;3.03;2.33;;;;;;;11.02;55.66;95329.53;5051192;28;20175;-79
2022/05/08 00:56:45;;;;;;;3.90;2.07;;;;;;;11.21;55.74;95344.53;5051355;28;20182;-79
2022/05/08 00:59:10;;;;;;;6.20;2.57;;;;;;;10.96;55.23;95331.16;5051274;28;20285;-79
2022/05/08 01:01:37;;;;;;;42.93;4.87;;;;;;;10.94;55.75;95348.97;5052171;28;20185;-80
2022/05/08 01:04:03;;;;;;;10.17;3.57;;;;;;;10.70;55.91;95309.22;5051272;28;20178;-79
2022/05/08 01:06:30;;;;;;;3.63;3.00;;;;;;;10.93;55.87;95343.91;5050940;28;20174;-79
2022/05/08 01:08:56;;;;;;;6.80;2.37;;;;;;;10.94;55.90;95338.44;5050655;28;20229;-79
2022/05/08 01:11:22;;;;;;;3.60;2.17;;;;;;;10.60;55.90;95296.44;5051361;28;20182;-80
2022/05/08 01:13:47;;;;;;;8.27;2.57;;;;;;;10.94;56.10;95354.25;5051824;28;20179;-80
2022/05/08 01:16:15;;;;;;;3.77;2.67;;;;;;;10.68;56.41;95295.44;5052038;28;20242;-81
2022/05/08 01:18:42;;;;;;;2.87;2.20;;;;;;;10.82;56.70;95318.16;5051715;28;20187;-81
2022/05/08 01:21:09;;;;;;;4.53;2.37;;;;;;;11.04;55.16;95347.78;5051721;28;20186;-80
2022/05/08 01:23:36;;;;;;;5.70;2.20;;;;;;;10.61;55.72;95287.56;5051915;28;20198;-80
2022/05/08 01:26:02;;;;;;;6.90;2.40;;;;;;;10.93;55.44;95339.44;5051898;28;20164;-80
2022/05/08 01:28:29;;;;;;;2.90;2.20;;;;;;;10.97;56.24;95347.78;5051423;28;20186;-80
2022/05/08 01:30:55;;;;;;;10.40;2.80;;;;;;;10.70;55.70;95298.69;5050759;28;20167;-80
2022/05/08 01:33:22;;;;;;;3.17;2.40;;;;;;;10.99;55.39;95345.72;5054791;28;20682;-80
2022/05/08 01:35:49;;;;;;;3.67;2.27;;;;;;;10.72;55.18;95301.94;5055001;28;20173;-80
2022/05/08 01:38:17;;;;;;;8.00;2.40;;;;;;;10.67;55.24;95292.00;5054741;28;20202;-80
2022/05/08 01:40:43;;;;;;;5.80;2.50;;;;;;;10.92;55.28;95332.56;5053549;28;20693;-80
2022/05/08 01:43:12;;;;;;;4.17;2.77;;;;;;;10.67;55.79;95289.38;5055632;28;20246;-80
2022/05/08 01:45:39;;;;;;;4.57;2.63;;;;;;;10.65;55.57;95286.13;5055297;28;20190;-81
2022/05/08 01:48:25;;;;;;;4.60;2.10;;;;;;;10.88;56.71;95333.16;5055109;28;20687;-81
2022/05/08 01:50:56;;;;;;;4.53;2.60;;;;;;;10.86;57.20;95336.00;5055523;28;20167;-80
2022/05/08 01:53:24;;;;;;;4.33;2.33;;;;;;;10.82;56.29;95326.88;5055454;28;20605;-80
2022/05/08 01:55:53;;;;;;;5.83;2.40;;;;;;;10.78;56.36;95332.75;5055374;28;20205;-80
2022/05/08 01:58:19;;;;;;;5.57;2.53;;;;;;;10.74;56.31;95332.31;5055250;28;20274;-79
2022/05/08 02:00:45;;;;;;;4.73;2.77;;;;;;;10.66;56.42;95332.50;5053395;28;20574;-80
2022/05/08 02:03:12;;;;;;;3.47;2.33;;;;;;;10.65;56.82;95328.25;5054771;28;20167;-79
2022/05/08 02:05:42;;;;;;;6.00;2.50;;;;;;;10.58;57.14;95317.72;5055216;28;20546;-80
2022/05/08 02:08:09;;;;;;;3.30;2.30;;;;;;;10.59;56.36;95329.88;5054808;28;20167;-80
2022/05/08 02:10:35;;;;;;;4.07;2.40;;;;;;;10.57;55.92;95331.06;5054304;28;20172;-80
2022/05/08 02:13:00;;;;;;;4.70;2.60;;;;;;;10.37;55.74;95312.59;5054114;28;20558;-79
2022/05/08 02:15:29;;;;;;;10.30;2.77;;;;;;;10.36;55.40;95313.59;5054116;28;20186;-79
2022/05/08 02:18:06;;;;;;;5.47;2.33;;;;;;;10.31;55.15;95316.00;5054307;28;20195;-79
2022/05/08 02:20:32;;;;;;;4.27;2.43;;;;;;;10.30;55.77;95321.47;5054663;28;21147;-79
2022/05/08 02:22:58;;;;;;;6.63;2.30;;;;;;;10.35;54.85;95333.03;5054554;28;20179;-79
2022/05/08 02:25:24;;;;;;;7.53;2.57;;;;;;;10.21;55.39;95299.78;5054543;28;20201;-79
2022/05/08 02:27:51;;;;;;;4.10;2.50;;;;;;;10.35;55.58;95322.50;5054795;28;20159;-79
2022/05/08 02:30:22;;;;;;;3.70;2.30;;;;;;;10.29;55.09;95317.22;5054652;28;20175;-79
2022/05/08 02:32:49;;;;;;;3.70;2.50;;;;;;;10.37;54.22;95332.84;5052981;28;20175;-79
2022/05/08 02:35:17;;;;;;;5.50;2.50;;;;;;;10.28;54.07;95331.41;5053812;28;20682;-79
2022/05/08 02:37:43;;;;;;;6.27;2.60;;;;;;;10.03;54.30;95323.19;5053333;28;20187;-79
2022/05/08 02:40:10;;;;;;;6.60;2.60;;;;;;;9.85;54.63;95307.91;5053536;28;20178;-79
2022/05/08 02:42:36;;;;;;;6.00;2.50;;;;;;;9.99;54.79;95338.53;5052553;28;20195;-80
2022/05/08 02:45:03;;;;;;;4.00;2.40;;;;;;;9.91;54.75;95322.91;5053848;28;20225;-79
2022/05/08 02:47:29;;;;;;;3.57;2.50;;;;;;;9.99;54.83;95333.25;5054046;28;20226;-79
2022/05/08 02:49:54;;;;;;;2.73;2.37;;;;;;;9.94;54.53;95326.97;5053789;28;20316;-79
2022/05/08 02:52:20;;;;;;;5.43;2.73;;;;;;;9.66;54.90;95283.16;5053334;28;20225;-79
2022/05/08 02:54:45;;;;;;;8.03;3.20;;;;;;;9.95;54.80;95321.50;5052933;28;20664;-79
2022/05/08 02:59:55;;;;;;;4.53;2.67;;;;;;;9.87;54.81;95328.72;5054232;28;20635;-79
2022/05/08 03:02:20;;;;;;;8.67;3.20;;;;;;;9.98;56.43;95331.63;5053832;28;20171;-80
2022/05/08 03:04:46;;;;;;;5.13;3.43;;;;;;;10.04;56.70;95336.09;5054401;28;20170;-80
2022/05/08 03:07:12;;;;;;;7.40;2.67;;;;;;;10.02;56.70;95346.03;5054070;28;20575;-80
2022/05/08 03:09:38;;;;;;;4.57;3.83;;;;;;;9.81;56.70;95318.00;5054017;28;20155;-80
2022/05/08 03:12:04;;;;;;;2.97;2.40;;;;;;;9.98;57.78;95338.72;5053983;28;20627;-80
2022/05/08 03:14:29;;;;;;;3.17;2.60;;;;;;;9.98;55.39;95346.59;5053770;28;20220;-80
2022/05/08 03:16:55;;;;;;;5.40;3.50;;;;;;;9.96;56.63;95340.72;5053690;28;20175;-80
2022/05/08 03:19:21;;;;;;;5.47;3.10;;;;;;;9.94;55.89;95340.13;5053530;28;20187;-80
2022/05/08 03:21:51;;;;;;;4.53;2.93;;;;;;;9.95;57.21;95337.28;5053498;28;20156;-79
2022/05/08 03:24:17;;;;;;;4.80;2.97;;;;;;;9.93;55.21;95341.94;5054310;28;20166;-79
2022/05/08 03:26:42;;;;;;;4.60;2.90;;;;;;;9.95;54.61;95355.69;5053435;28;20242;-79
2022/05/08 03:29:08;;;;;;;5.10;3.50;;;;;;;9.73;55.43;95325.22;5053404;28;20306;-80
2022/05/08 03:31:34;;;;;;;4.77;2.90;;;;;;;9.82;56.23;95345.09;5053878;28;20183;-80
2022/05/08 03:34:00;;;;;;;5.47;2.50;;;;;;;9.83;56.38;95344.91;5053261;28;20602;-79
2022/05/08 03:36:25;;;;;;;6.20;2.80;;;;;;;9.79;56.82;95350.75;5053436;28;20159;-80
2022/05/08 03:38:51;;;;;;;6.27;3.17;;;;;;;9.87;55.84;95347.94;5052327;28;20191;-80
2022/05/08 03:41:17;;;;;;;3.90;2.80;;;;;;;9.67;55.23;95310.25;5052330;28;20179;-79
2022/05/08 03:43:46;;;;;;;3.60;2.70;;;;;;;9.77;54.32;95308.06;5052440;28;20642;-80
2022/05/08 03:46:15;;;;;;;9.70;2.80;;;;;;;10.12;53.72;95354.34;5051312;28;20223;-80
2022/05/08 03:48:41;;;;;;;4.23;2.70;;;;;;;10.20;55.14;95354.22;5052998;28;20247;-80
2022/05/08 03:51:08;;;;;;;9.97;2.93;;;;;;;10.00;55.59;95308.59;5052916;28;20194;-80
2022/05/08 03:53:34;;;;;;;10.13;3.10;;;;;;;10.35;54.39;95359.34;5052932;28;20162;-80
2022/05/08 03:55:59;;;;;;;3.57;3.20;;;;;;;10.42;54.96;95360.19;5052453;28;20225;-80
2022/05/08 03:58:26;;;;;;;11.30;2.97;;;;;;;10.48;55.28;95348.84;5052968;28;20198;-80
2022/05/08 04:00:52;;;;;;;10.20;4.43;;;;;;;10.62;55.13;95352.34;5053294;28;20151;-80
2022/05/08 04:03:17;;;;;;;7.93;3.20;;;;;;;10.77;55.50;95353.00;5052674;28;20224;-80
2022/05/08 04:05:43;;;;;;;4.57;2.83;;;;;;;10.45;54.38;95280.84;5052949;28;20159;-80
2022/05/08 04:08:08;;;;;;;5.43;3.00;;;;;;;10.98;56.11;95352.81;5051273;28;20199;-80
2022/05/08 04:10:34;;;;;;;4.93;2.90;;;;;;;11.02;54.82;95334.78;5052609;28;20220;-80
2022/05/08 04:12:59;;;;;;;7.03;3.57;;;;;;;11.05;53.91;95313.31;5052833;28;20159;-80
2022/05/08 04:18:09;;;;;;;14.83;4.43;;;;;;;11.67;53.48;95365.63;5052824;28;20198;-80
2022/05/08 04:20:36;;;;;;;7.30;4.23;;;;;;;11.85;52.53;95367.63;5052682;28;20160;-80
2022/05/08 04:25:46;;;;;;;6.73;4.20;;;;;;;12.36;52.20;95359.00;5049614;28;20256;-80
2022/05/08 04:28:11;;;;;;;7.13;3.77;;;;;;;12.67;51.43;95360.88;5051665;28;20632;-80
2022/05/08 04:30:37;;;;;;;5.60;3.47;;;;;;;12.91;50.81;95354.03;5051472;28;20190;-80
2022/05/08 04:33:03;;;;;;;5.03;3.10;;;;;;;13.37;47.44;95374.91;5052216;28;20278;-80
2022/05/08 04:35:28;;;;;;;7.07;3.27;;;;;;;13.52;48.81;95339.16;5052502;28;20660;-80
2022/05/08 04:37:54;;;;;;;9.27;2.93;;;;;;;13.84;44.90;95334.56;5052319;28;20190;-80
2022/05/08 04:40:19;;;;;;;7.07;2.77;;;;;;;14.30;44.30;95367.72;5052117;28;20326;-80
2022/05/08 04:42:45;;;;;;;3.93;2.93;;;;;;;14.68;41.91;95355.06;5052071;28;20220;-80
2022/05/08 04:45:10;;;;;;;5.53;2.80;;;;;;;15.30;42.18;95358.28;5052237;28;20174;-81
2022/05/08 04:47:37;;;;;;;4.63;2.77;;;;;;;15.71;39.92;95354.78;5051065;28;20218;-80
2022/05/08 04:50:02;;;;;;;4.40;2.47;;;;;;;16.09;38.64;95375.53;5049733;28;20195;-80
2022/05/08 04:52:28;;;;;;;6.80;2.47;;;;;;;16.23;37.77;95354.88;5051148;28;20599;-81
2022/05/08 04:54:53;;;;;;;4.80;2.87;;;;;;;15.80;37.35;95305.59;5052205;28;20171;-81
2022/05/08 04:57:19;;;;;;;3.67;2.70;;;;;;;15.97;38.53;95303.03;5052463;28;20174;-80
2022/05/08 04:59:44;;;;;;;6.40;2.10;;;;;;;16.48;35.97;95373.19;5051266;28;20203;-81
2022/05/08 05:02:10;;;;;;;3.50;2.10;;;;;;;16.50;36.23;95384.41;5050869;28;20190;-81
2022/05/08 05:04:35;;;;;;;3.87;2.20;;;;;;;16.55;35.47;95334.00;5050832;28;20178;-81
2022/05/08 05:07:02;;;;;;;4.63;2.27;;;;;;;17.97;34.49;95384.44;5053157;28;20179;-81
2022/05/08 05:09:27;;;;;;;6.15;2.30;;;;;;;18.80;34.12;95344.25;5055406;28;20181;-81
2022/05/08 05:11:54;;;;;;;3.67;2.38;;;;;;;19.96;30.65;95389.97;5055002;28;20166;-81
2022/05/08 05:14:19;;;;;;;4.50;2.50;;;;;;;20.41;29.25;95385.22;5054906;28;20183;-80
2022/05/08 05:16:46;;;;;;;5.55;2.47;;;;;;;20.33;29.24;95336.44;5055168;28;20262;-81
2022/05/08 05:19:12;;;;;;;3.83;2.05;;;;;;;20.82;28.18;95362.94;5055757;28;20186;-80
2022/05/08 05:21:37;;;;;;;6.13;2.05;;;;;;;21.13;27.94;95373.72;5056070;28;20182;-80
2022/05/08 05:24:03;;;;;;;4.38;2.40;;;;;;;21.79;26.99;95388.06;5055778;28;20203;-80
2022/05/08 05:26:29;;;;;;;4.97;2.20;;;;;;;22.17;26.68;95389.41;5055643;28;20163;-80
2022/05/08 05:28:54;;;;;;;9.60;2.25;;;;;;;22.09;27.02;95347.84;5055538;28;20663;-80
2022/05/08 05:31:20;;;;;;;3.42;2.10;;;;;;;22.58;27.17;95353.34;5055894;28;20159;-81
2022/05/08 05:33:46;;;;;;;7.20;2.83;;;;;;;23.68;26.73;95382.69;5055549;28;20620;-81
2022/05/08 05:36:12;;;;;;;7.07;3.38;;;;;;;24.17;25.26;95349.44;5055487;28;20182;-81
2022/05/08 05:38:38;;;;;;;5.22;2.45;;;;;;;24.94;24.38;95377.22;5055641;28;20217;-81
2022/05/08 05:41:03;;;;;;;6.53;2.70;;;;;;;25.38;23.53;95354.53;5054494;28;20260;-81
2022/05/08 05:43:29;;;;;;;6.30;2.83;;;;;;;25.33;23.14;95374.28;5054487;28;20664;-81
2022/05/08 05:48:39;;;;;;;7.45;2.60;;;;;;;24.80;22.58;95360.91;5054685;28;20305;-81
2022/05/08 05:51:05;;;;;;;4.93;2.70;;;;;;;24.40;23.84;95364.84;5055533;28;20628;-80
2022/05/08 05:53:31;;;;;;;4.53;2.33;;;;;;;24.73;23.70;95382.03;5055533;28;20568;-81
2022/05/08 05:55:58;;;;;;;4.47;3.03;;;;;;;24.56;23.37;95383.56;5055576;28;20224;-81
2022/05/08 05:58:26;;;;;;;3.90;2.38;;;;;;;24.19;24.08;95382.25;5054273;28;20217;-82
2022/05/08 06:00:51;;;;;;;5.50;2.60;;;;;;;24.14;25.81;95338.44;5052824;28;20273;-82
2022/05/08 06:03:19;;;;;;;5.03;2.90;;;;;;;24.50;24.40;95376.59;5053751;28;20190;-81
2022/05/08 06:05:45;;;;;;;6.50;2.53;;;;;;;23.89;24.04;95339.47;5054250;28;20205;-82
2022/05/08 06:08:10;;;;;;;4.70;2.40;;;;;;;23.31;26.10;95377.78;5056193;28;20543;-80
2022/05/08 06:10:36;;;;;;;4.68;2.67;;;;;;;22.82;25.78;95356.28;5053613;28;20194;-80
2022/05/08 06:13:02;;;;;;;4.70;2.63;;;;;;;22.68;26.30;95373.19;5054982;28;20179;-80
2022/05/08 06:15:28;;;;;;;7.40;3.33;;;;;;;22.25;26.50;95345.94;5055022;28;20179;-79
2022/05/08 06:17:53;;;;;;;6.45;3.20;;;;;;;21.93;27.41;95366.88;5053254;28;20741;-81
2022/05/08 06:20:19;;;;;;;3.03;2.08;;;;;;;21.59;27.16;95372.78;5054222;28;20167;-80
2022/05/08 06:22:45;;;;;;;7.28;2.92;;;;;;;21.20;28.08;95344.84;5053767;28;20163;-79
2022/05/08 06:25:12;;;;;;;7.25;2.35;;;;;;;21.24;28.58;95351.28;5053737;28;20170;-80
2022/05/08 06:27:37;;;;;;;4.03;2.28;;;;;;;21.36;27.93;95352.63;5053306;28;21078;-79
2022/05/08 06:30:03;;;;;;;5.78;2.38;;;;;;;21.83;28.02;95373.06;5052967;28;20225;-79
2022/05/08 06:32:29;;;;;;;3.42;2.45;;;;;;;21.97;30.29;95362.56;5053424;28;20217;-80
2022/05/08 06:34:54;;;;;;;4.75;2.30;;;;;;;22.19;28.60;95368.50;5053627;28;20171;-81
2022/05/08 06:37:20;;;;;;;4.13;2.40;;;;;;;22.42;28.31;95362.53;5053611;28;20175;-80
2022/05/08 06:39:45;;;;;;;5.05;2.35;;;;;;;22.44;27.37;95328.19;5052439;28;20202;-83
2022/05/08 06:42:11;;;;;;;5.72;2.53;;;;;;;22.58;27.88;95341.81;5053386;28;20163;-81
2022/05/08 06:44:36;;;;;;;6.28;2.28;;;;;;;22.45;26.48;95343.22;5053331;28;22144;-82
2022/05/08 06:47:02;;;;;;;6.75;3.17;;;;;;;22.35;27.29;95342.44;5053225;28;20309;-82
2022/05/08 06:49:27;;;;;;;6.47;2.20;;;;;;;22.19;28.53;95320.22;5053386;28;20175;-82
2022/05/08 06:51:53;;;;;;;4.10;2.35;;;;;;;22.01;27.99;95332.31;5053091;28;20572;-83
2022/05/08 06:54:19;;;;;;;3.05;2.28;;;;;;;21.68;27.48;95324.81;5052091;28;20186;-82
2022/05/08 06:56:45;;;;;;;6.22;2.75;;;;;;;21.82;30.15;95356.16;5052419;28;20187;-81
2022/05/08 07:01:54;;;;;;;6.88;2.63;;;;;;;21.13;28.28;95307.59;5052743;28;20194;-82
2022/05/08 07:04:20;;;;;;;7.68;2.58;;;;;;;21.24;29.43;95352.09;5051703;28;20179;-82
2022/05/08 07:06:45;;;;;;;8.50;2.75;;;;;;;21.09;29.54;95293.13;5051037;28;20552;-84
2022/05/08 07:09:13;;;;;;;7.68;2.40;;;;;;;21.34;29.14;95295.06;5053655;28;20651;-83
2022/05/08 07:11:38;;;;;;;5.82;2.42;;;;;;;22.06;28.35;95351.06;5056540;28;20179;-84
2022/05/08 07:14:04;;;;;;;4.30;2.47;;;;;;;22.20;28.60;95328.00;5050843;28;20549;-84
2022/05/08 07:16:30;;;;;;;5.35;2.58;;;;;;;22.54;27.58;95346.94;5052368;28;20168;-81
2022/05/08 07:18:55;;;;;;;4.68;2.38;;;;;;;22.15;29.55;95293.13;5051986;28;20246;-85
2022/05/08 07:21:21;;;;;;;3.63;2.63;;;;;;;22.20;27.81;95352.13;5051369;28;20302;-84
2022/05/08 07:23:47;;;;;;;6.20;3.22;;;;;;;22.39;28.43;95351.56;5052570;28;20648;-80
2022/05/08 07:26:13;;;;;;;6.75;2.83;;;;;;;22.22;27.87;95337.66;5052152;28;20163;-81
2022/05/08 07:28:39;;;;;;;4.72;2.45;;;;;;;21.92;28.14;95303.59;5052056;28;20187;-82
2022/05/08 07:31:05;;;;;;;3.70;2.83;;;;;;;22.40;27.98;95339.75;5051994;28;20587;-82
2022/05/08 07:33:34;;;;;;;5.75;2.75;;;;;;;22.59;28.14;95338.88;5052110;28;20211;-82
2022/05/08 07:36:13;;;;;;;3.17;2.60;;;;;;;22.76;28.71;95335.88;5050790;28;20163;-83
2022/05/08 07:38:46;;;;;;;4.65;2.35;;;;;;;23.15;28.70;95308.28;5051840;28;20230;-83
2022/05/08 07:41:15;;;;;;;4.32;2.70;;;;;;;22.70;27.68;95294.00;5052360;28;20179;-82
2022/05/08 07:43:42;;;;;;;5.47;3.10;;;;;;;23.19;27.63;95336.19;5052131;28;20175;-83
2022/05/08 07:46:07;;;;;;;3.95;2.50;;;;;;;23.08;27.93;95321.22;5050233;28;20229;-80
2022/05/08 07:48:34;;;;;;;7.10;3.83;;;;;;;23.04;27.67;95275.31;5059381;28;20182;-82
2022/05/08 07:51:00;;;;;;;7.63;2.63;;;;;;;23.65;28.54;95328.66;5073243;28;20165;-82
2022/05/08 07:53:27;;;;;;;4.43;2.60;;;;;;;22.52;28.56;95291.94;5073247;28;20158;-83
2022/05/08 07:55:53;;;;;;;8.07;2.78;;;;;;;22.05;29.13;95268.22;5073191;28;20250;-83
2022/05/08 07:58:22;;;;;;;4.90;2.38;;;;;;;21.85;29.59;95263.69;5073092;28;20196;-83
2022/05/08 08:00:54;;;;;;;7.47;3.00;;;;;;;22.40;28.61;95315.59;5067053;28;20183;-81
2022/05/08 08:03:24;;;;;;;5.15;2.55;;;;;;;22.52;28.50;95275.81;5050350;28;20209;-80
2022/05/08 08:05:50;;;;;;;4.53;2.60;;;;;;;23.22;28.94;95323.00;5049131;28;20198;-81
2022/05/08 08:08:17;;;;;;;6.35;2.38;;;;;;;23.29;29.04;95274.34;5051478;28;20167;-81
2022/05/08 08:10:43;;;;;;;6.90;2.38;;;;;;;23.80;27.18;95316.97;5051275;28;20191;-80
2022/05/08 08:13:09;;;;;;;4.15;2.42;;;;;;;23.89;28.34;95312.56;5050898;28;20640;-80
2022/05/08 08:15:35;;;;;;;2.97;2.40;;;;;;;24.12;26.77;95316.41;5049802;28;20187;-80
2022/05/08 08:18:01;;;;;;;3.60;2.60;;;;;;;24.17;27.17;95301.00;5050815;28;20198;-80
2022/05/08 08:20:26;;;;;;;6.30;2.72;;;;;;;23.86;26.81;95313.16;5050778;28;20182;-80
2022/05/08 08:22:53;;;;;;;17.95;10.40;;;;;;;23.87;28.67;95309.41;5051604;28;20175;-80
2022/05/08 08:25:20;;;;;;;6.65;3.17;;;;;;;23.36;27.61;95274.00;5051018;28;20648;-81
2022/05/08 08:27:46;;;;;;;5.35;3.03;;;;;;;22.93;28.28;95263.81;5050582;28;20175;-81
2022/05/08 08:30:13;;;;;;;5.55;3.13;;;;;;;22.84;29.15;95302.28;5050645;28;20179;-81
2022/05/08 08:32:38;;;;;;;7.03;3.22;;;;;;;22.43;29.76;95299.75;5051351;28;20750;-81
2022/05/08 08:35:05;;;;;;;7.00;3.10;;;;;;;22.71;30.91;95281.38;5050976;28;20187;-84
2022/05/08 08:37:30;;;;;;;5.65;2.97;;;;;;;23.05;28.71;95293.03;5050573;28;20202;-78
2022/05/08 08:39:56;;;;;;;10.63;2.78;;;;;;;23.08;28.69;95291.69;5050497;28;20225;-80
2022/05/08 08:42:31;;;;;;;5.10;2.58;;;;;;;23.19;28.04;95287.84;5051510;28;20183;-81
2022/05/08 08:47:55;;;;;;;7.82;2.85;;;;;;;22.38;29.44;95266.78;5052014;28;20332;-80
2022/05/08 08:50:28;;;;;;;3.90;2.33;;;;;;;22.62;27.95;95277.66;5051313;28;20236;-80
2022/05/08 08:52:57;;;;;;;5.10;2.63;;;;;;;22.36;29.62;95280.47;5050252;28;20636;-83
2022/05/08 08:55:22;;;;;;;4.90;2.45;;;;;;;22.27;28.82;95292.03;5051294;28;20253;-82
2022/05/08 08:57:48;;;;;;;6.50;2.42;;;;;;;22.22;29.28;95263.34;5052414;28;20635;-82
2022/05/08 09:00:15;;;;;;;3.10;2.42;;;;;;;22.01;29.56;95246.50;5048831;28;20261;-81
2022/05/08 09:02:40;;;;;;;7.00;2.40;;;;;;;21.75;28.90;95279.78;5050645;28;20236;-81
2022/05/08 09:05:08;;;;;;;5.45;2.72;;;;;;;21.86;30.04;95285.94;5050962;28;20616;-81
2022/05/08 09:07:34;;;;;;;5.40;2.25;;;;;;;21.93;28.63;95281.09;5048049;28;20192;-81
2022/05/08 09:10:09;;;;;;;4.78;2.78;;;;;;;21.72;29.80;95280.28;5051353;28;20236;-81
2022/05/08 09:12:35;;;;;;;6.60;3.88;;;;;;;21.48;30.15;95268.53;5051665;28;20193;-83
2022/05/08 09:15:17;;;;;;;2.70;2.15;;;;;;;21.53;29.45;95231.84;5051765;28;20171;-83
2022/05/08 09:17:43;;;;;;;5.85;2.40;;;;;;;21.03;29.85;95216.53;5051610;28;20148;-82
2022/05/08 09:20:32;;;;;;;3.65;2.15;;;;;;;21.32;30.18;95260.50;5052121;28;20551;-81
2022/05/08 09:23:25;;;;;;;6.43;3.45;;;;;;;21.51;31.61;95273.38;5052281;28;20238;-82
2022/05/08 09:26:00;;;;;;;4.32;2.40;;;;;;;20.74;29.90;95228.81;5046038;28;20195;-82
2022/05/08 09:28:28;;;;;;;4.75;2.40;;;;;;;20.74;31.16;95256.41;5050822;28;20224;-84
2022/05/08 09:30:59;;;;;;;6.50;2.60;;;;;;;20.75;31.27;95260.69;5049394;28;20174;-80
2022/05/08 09:33:25;;;;;;;7.43;2.60;;;;;;;20.61;31.55;95263.03;5048933;28;20660;-80
2022/05/08 09:35:51;;;;;;;3.28;2.45;;;;;;;20.24;32.53;95223.03;5049953;28;20182;-83
2022/05/08 09:38:17;;;;;;;5.13;2.65;;;;;;;20.21;31.98;95185.31;5050724;28;20194;-82
2022/05/08 09:40:42;;;;;;;3.92;2.28;;;;;;;20.58;31.92;95204.69;5051815;28;20163;-82
2022/05/08 09:43:30;;;;;;;3.13;2.33;;;;;;;20.87;30.77;95249.72;5051514;28;20193;-82
2022/05/08 09:45:57;;;;;;;2.90;2.10;;;;;;;20.69;30.68;95181.44;5050974;28;20183;-81
2022/05/08 09:48:28;;;;;;;2.53;2.00;;;;;;;21.01;30.29;95218.69;5033318;28;20254;-82
2022/05/08 09:51:03;;;;;;;2.70;2.30;;;;;;;21.33;30.97;95234.53;5042901;28;20178;-81
2022/05/08 09:53:31;;;;;;;6.05;2.92;;;;;;;21.16;29.26;95242.78;5054210;28;20181;-81
2022/05/08 09:56:01;;;;;;;2.22;2.00;;;;;;;20.66;25.55;95192.69;5053233;28;20174;-80
2022/05/08 09:58:27;;;;;;;4.82;1.80;;;;;;;20.96;24.61;95240.91;5049772;28;20206;-81
2022/05/08 10:00:54;;;;;;;3.28;1.90;;;;;;;20.77;23.67;95231.75;5054420;28;20254;-84
2022/05/08 10:03:20;;;;;;;3.78;1.90;;;;;;;20.85;24.69;95233.09;5054344;28;20626;-82
2022/05/08 10:05:47;;;;;;;2.78;1.80;;;;;;;20.73;25.30;95195.09;5054147;28;20163;-85
2022/05/08 10:08:14;;;;;;;3.33;1.95;;;;;;;21.06;25.73;95229.41;5049066;28;20193;-83
2022/05/08 10:13:53;;;;;;;5.50;1.90;;;;;;;21.34;24.25;95220.06;5053900;28;20161;-78
2022/05/08 10:16:53;;;;;;;2.25;1.65;;;;;;;21.39;24.06;95214.69;5051901;28;20195;-79
2022/05/08 10:19:19;;;;;;;4.70;2.58;;;;;;;21.39;23.50;95217.38;5053940;28;20206;-79
2022/05/08 10:21:56;;;;;;;2.05;1.65;;;;;;;21.38;24.07;95208.53;5053730;28;20170;-79
2022/05/08 10:24:33;;;;;;;3.00;1.65;;;;;;;21.37;21.43;95177.44;5050461;28;20182;-81
2022/05/08 10:27:18;;;;;;;2.72;1.52;;;;;;;21.73;19.78;95207.66;5051634;28;20348;-82
2022/05/08 10:29:55;;;;;;;1.98;1.77;;;;;;;21.77;21.97;95206.06;5052010;28;20178;-81
2022/05/08 10:32:31;;;;;;;4.13;1.80;;;;;;;21.62;22.94;95206.06;5053584;28;20178;-81
2022/05/08 10:35:16;;;;;;;9.50;1.80;;;;;;;21.28;21.69;95199.69;5052635;28;20159;-79
2022/05/08 10:37:50;;;;;;;2.90;1.85;;;;;;;21.26;22.52;95199.97;5053604;28;20221;-80
2022/05/08 10:40:21;;;;;;;1.65;1.27;;;;;;;21.22;21.68;95196.22;5052663;28;20175;-80
2022/05/08 10:42:47;;;;;;;2.13;1.48;;;;;;;21.07;21.76;95174.78;5054594;28;20152;-81
2022/05/08 10:45:34;;;;;;;2.05;1.50;;;;;;;21.16;23.51;95191.09;5054337;28;20281;-82
2022/05/08 10:48:05;;;;;;;1.95;1.63;;;;;;;21.29;24.54;95175.31;5052548;28;20231;-79
2022/05/08 10:50:31;;;;;;;2.80;1.65;;;;;;;21.31;23.20;95167.00;5050642;28;20174;-80
2022/05/08 10:52:58;;;;;;;2.08;1.77;;;;;;;21.38;22.45;95184.41;5052905;28;20171;-78
2022/05/08 10:55:26;;;;;;;2.08;1.75;;;;;;;21.48;22.86;95172.88;5053327;28;20229;-82
2022/05/08 10:57:53;;;;;;;2.35;1.58;;;;;;;21.65;23.19;95172.56;5053308;28;20159;-81
2022/05/08 11:00:25;;;;;;;4.20;1.65;;;;;;;21.55;23.24;95173.41;5053084;28;20186;-83
2022/05/08 11:02:59;;;;;;;3.20;1.70;;;;;;;21.65;27.12;95167.22;5053075;28;20605;-82
2022/05/08 11:05:38;;;;;;;4.97;2.03;;;;;;;21.52;23.07;95162.44;5054848;28;20174;-82
2022/05/08 11:08:12;;;;;;;3.28;1.70;;;;;;;21.49;23.78;95173.69;5050542;28;20601;-83
2022/05/08 11:10:42;;;;;;;2.92;1.45;;;;;;;21.39;24.09;95151.19;5052707;28;20630;-85
2022/05/08 11:13:11;;;;;;;3.72;2.10;;;;;;;21.45;25.57;95152.78;5053010;28;20163;-83
2022/05/08 11:15:39;;;;;;;1.75;1.60;;;;;;;21.23;24.27;95092.56;5053588;28;20175;-83
2022/05/08 11:18:09;;;;;;;2.85;1.88;;;;;;;21.19;24.01;95065.53;5050811;28;20742;-85
2022/05/08 11:20:47;;;;;;;2.65;1.77;;;;;;;21.97;24.17;95156.09;5050247;28;20181;-80
2022/05/08 11:23:18;;;;;;;3.63;1.70;;;;;;;21.97;23.34;95135.50;5049448;28;20773;-81
2022/05/08 11:25:52;;;;;;;2.17;1.55;;;;;;;22.09;23.50;95140.53;5049671;28;20246;-80
2022/05/08 11:28:20;;;;;;;4.35;2.17;;;;;;;22.15;24.56;95142.13;5049398;28;20198;-79
2022/05/08 11:30:50;;;;;;;4.72;1.77;;;;;;;21.93;22.85;95098.75;5048011;28;20322;-82
2022/05/08 11:36:12;;;;;;;3.28;1.90;;;;;;;21.76;24.24;95121.34;5048578;28;20667;-82
2022/05/08 11:38:56;;;;;;;2.05;1.60;;;;;;;21.76;24.22;95136.63;5049440;28;20746;-87
2022/05/08 11:41:34;;;;;;;2.28;1.90;;;;;;;21.69;25.09;95122.72;5050437;28;20164;-81
2022/05/08 11:44:02;;;;;;;2.33;1.65;;;;;;;21.92;23.75;95130.13;5049907;28;20162;-84
2022/05/08 11:46:45;;;;;;;2.83;1.90;;;;;;;21.84;24.59;95102.03;5050500;28;20237;-79
2022/05/08 11:49:22;;;;;;;2.83;1.65;;;;;;;22.00;25.11;95124.22;5050962;28;20175;-79
2022/05/08 11:51:51;;;;;;;4.30;1.90;;;;;;;21.90;24.59;95113.50;5050658;28;20171;-80
2022/05/08 11:54:30;;;;;;;2.13;1.55;;;;;;;22.13;22.31;95131.69;5049407;28;20171;-79
2022/05/08 11:57:14;;;;;;;1.48;1.38;;;;;;;22.15;21.78;95137.56;5050804;28;20183;-80
2022/05/08 11:59:43;;;;;;;5.88;2.13;;;;;;;22.03;21.83;95094.19;5050744;28;20277;-81